Jewell Ridge, VA (24622)

2:18 PM EDT on August 29, 2015 (GMT -0400)
Jewell Ridge | | Change Station
CLOSE
Current Station
Personal Weather Station
Location: Jewell Ridge, VA
Elevation: 2986 ft
Nearby Weather Stations

Elev 2986 ft 37.20 °N, 81.78 °W | Updated 2 minutes ago

Partly Cloudy
Partly Cloudy
79.0 °F
Feels Like 80 °F
N
1.7
Wind Variable Wind from NNE

Today
High -- | Low -- °F
--% Chance of Precip.
Yesterday
High -- | Low -- °F
Precip. -- in
6:55 AM 8:00 PM
Full, 100% visible
Pressure 30.28 in
Visibility 10.0 miles
Clouds Scattered Clouds 4700 ft
Scattered Clouds 9000 ft
Heat Index 80 °F
Dew Point 61 °F
Humidity 54%
Rainfall 0.00 in
Snow Depth Not available.
UV 8 out of 12
Pollen 9.50 out of 12
Air Quality Not available.
Flu Activity Not available.
METAR KJFZ 291755Z AUTO 30003KT 10SM SCT047 SCT090 25/M07 A3028 RMK AO2 T02541073 10259 20172
Pressure 30.28 in
Visibility 10.0 miles
Clouds Scattered Clouds 4700 ft
Scattered Clouds 9000 ft
Heat Index 80 °F
Dew Point 61 °F
Humidity 54%
Rainfall 0.00 in
Snow Depth Not available.
UV 8 out of 12
Pollen 9.50 out of 12
Air Quality Not available.
Flu Activity Not available.
METAR KJFZ 291755Z AUTO 30003KT 10SM SCT047 SCT090 25/M07 A3028 RMK AO2 T02541073 10259 20172

10-Day Weather Forecast

×

Almanac

Astronomy

Aug. 29, 2015 Rise Set
Actual Time
Civil Twilight
Nautical Twilight
Astronomical Twilight
Moon
Length of Visible Light
Length of Day
Tomorrow will be .
, % of the Moon is Illuminated

Today's Extremes

State Highs State Lows

Community

WunderPhotos

Upload Photos

1,850,752 photos uploaded!

WunderBlogs® & News

Nearby

Air Quality

  Air Quality AQ Index Pollutant
Not available.

Snow Depth

Station Depth Elevation

Earthquake Activity

City Distance Mag. Time & Date
Minimum magnitude displayed is 2.5.

Coastal Water Temperatures

Place Temperature

Stations

Nearby Weather Stations

Station Location Temp. Windchill Dew Point Humidity Wind Precip. Elev Updated Type